Cruzeiro Do Sul — WDJ2082 — position and weather

sailwx.info

Track history (hours):
 
Tides and Currents Weather Stations Pressure Air Temp Water Temp Dewpoint Dewpoint Depression Visibility Wind Speed Wind Dir Waves Ship Positions

Cruzeiro Do Sul

Owner: Allen, Gail K, Anacortes, WA. More information available from US FCC via Universal Licensing System and Coast Guard Vessel Documentation Center.

Last reported at 2018-Jun-08 20:35 UTC. Time now 2018-Jun-24 03:41 UTC.
Position N 50°25' W 125°14'.
Warning: this ship's position is 15 days out of date.

Length 16 m.

Type: Pleasure craft. MMSI: 367755070.

Date/timePositionNaut miles runAvg speedWind from/ knotsBaromVisibWave heightAir tempDewpointWater temp
2018-Jun-08 20:35N 50°25' W 125°14'2 7.6
2018-Jun-08 20:21N 50°24' W 125°12'3 5.6
2018-Jun-08 19:52N 50°22' W 125°09'3 8.1
2018-Jun-08 19:30N 50°20' W 125°06'4 7.6
2018-Jun-08 19:00N 50°17' W 125°02'4 8.1
2018-Jun-08 18:30N 50°14' W 124°58'4 8.3
2018-Jun-08 17:59N 50°10' W 124°55'4 7.7
2018-Jun-08 17:29N 50°07' W 124°51'3 6.3
2018-Jun-08 17:00N 50°07' W 124°47'4 6.9
2018-Jun-08 16:28N 50°09' W 124°41'0 0.9
2018-Jun-08 15:58N 50°08' W 124°41'0 0.0
2018-Jun-08 15:28N 50°08' W 124°41'0 0.0
2018-Jun-08 14:58N 50°08' W 124°41'0 0.0
2018-Jun-08 14:28N 50°08' W 124°41'0 0.0
2018-Jun-08 13:58N 50°08' W 124°41'0 0.0
2018-Jun-08 13:28N 50°08' W 124°41'0 0.0
2018-Jun-08 12:58N 50°08' W 124°41'0 0.0
2018-Jun-08 12:28N 50°08' W 124°41'0 0.0
2018-Jun-08 11:58N 50°08' W 124°41'0 0.0
2018-Jun-08 11:28N 50°08' W 124°41'0 0.0
2018-Jun-08 10:55N 50°08' W 124°41'0 0.0
2018-Jun-08 10:28N 50°08' W 124°41'0 0.0
2018-Jun-08 09:58N 50°08' W 124°41'0 0.0
2018-Jun-08 09:28N 50°08' W 124°41'0 0.0
2018-Jun-08 08:58N 50°08' W 124°41'0 0.0
2018-Jun-08 08:25N 50°08' W 124°41'0 0.0
2018-Jun-08 07:58N 50°08' W 124°41'0 0.0
2018-Jun-08 07:28N 50°08' W 124°41'0 0.0
2018-Jun-08 06:58N 50°08' W 124°41'0 0.0
2018-Jun-08 06:28N 50°08' W 124°41'0 0.0
2018-Jun-08 05:58N 50°08' W 124°41'0 0.0
2018-Jun-08 05:28N 50°08' W 124°41'0 0.0
2018-Jun-08 04:58N 50°08' W 124°41'0 0.0
2018-Jun-08 04:28N 50°08' W 124°41'0 0.0
2018-Jun-08 03:55N 50°08' W 124°41'0 0.0
2018-Jun-08 03:25N 50°08' W 124°41'0 0.0
2018-Jun-08 02:55N 50°08' W 124°41'0 0.0
2018-Jun-08 02:25N 50°08' W 124°41'0 0.0
2018-Jun-08 01:58N 50°08' W 124°41'0 0.0
2018-Jun-08 01:25N 50°08' W 124°41'0 0.0
2018-Jun-08 00:58N 50°08' W 124°41'0 0.0
2018-Jun-08 00:28N 50°08' W 124°41'0 0.0
2018-Jun-07 23:58N 50°08' W 124°41'0 0.0
2018-Jun-07 23:28N 50°08' W 124°41'0 0.0
2018-Jun-07 22:58N 50°08' W 124°41'0 0.0
2018-Jun-07 22:28N 50°08' W 124°41'0 0.0
2018-Jun-07 21:55N 50°08' W 124°41'0 0.0
2018-Jun-07 21:25N 50°08' W 124°41'0 0.0
2018-Jun-07 20:58N 50°08' W 124°41'0 0.0
2018-Jun-07 20:28N 50°08' W 124°41'0 0.0
2018-Jun-07 19:58N 50°08' W 124°41'0 0.0
2018-Jun-07 19:28N 50°08' W 124°41'0 0.0
2018-Jun-07 18:55N 50°08' W 124°41'0 0.0
2018-Jun-07 18:28N 50°08' W 124°41'0 0.0
2018-Jun-07 17:55N 50°08' W 124°41'0 0.0
2018-Jun-07 17:28N 50°08' W 124°41'0 0.0
2018-Jun-07 16:58N 50°08' W 124°41'0 0.0
2018-Jun-07 16:28N 50°08' W 124°41'0 0.0
2018-Jun-07 15:55N 50°08' W 124°41'0 0.0
2018-Jun-07 15:28N 50°08' W 124°41'0 0.0
2018-Jun-07 14:58N 50°08' W 124°41'0 0.0
2018-Jun-07 14:28N 50°08' W 124°41'0 0.0
2018-Jun-07 13:58N 50°08' W 124°41'0 0.0
2018-Jun-07 13:28N 50°08' W 124°41'0 0.0
2018-Jun-07 12:55N 50°08' W 124°41'0 0.0
2018-Jun-07 12:25N 50°08' W 124°41'0 0.0
2018-Jun-07 11:58N 50°08' W 124°41'0 0.0
2018-Jun-07 11:28N 50°08' W 124°41'0 0.0
2018-Jun-07 10:58N 50°08' W 124°41'0 0.0
2018-Jun-07 10:28N 50°08' W 124°41'0 0.0
2018-Jun-07 09:55N 50°08' W 124°41'0 0.0
2018-Jun-07 09:28N 50°08' W 124°41'0 0.0
2018-Jun-07 08:58N 50°08' W 124°41'0 0.0
2018-Jun-07 08:28N 50°08' W 124°41'0 0.0
2018-Jun-07 07:58N 50°08' W 124°41'0 0.0
2018-Jun-07 07:28N 50°08' W 124°41'0 0.0
2018-Jun-07 06:58N 50°08' W 124°41'0 0.0
2018-Jun-07 06:28N 50°08' W 124°41'0 0.0
2018-Jun-07 05:55N 50°08' W 124°41'0 0.0
2018-Jun-07 05:28N 50°08' W 124°41'0 0.0
2018-Jun-07 04:58N 50°08' W 124°41'0 0.0
2018-Jun-07 04:28N 50°08' W 124°41'0 0.0
2018-Jun-07 03:58N 50°08' W 124°41'0 0.0
2018-Jun-07 03:28N 50°08' W 124°41'0 0.0
2018-Jun-07 02:55N 50°08' W 124°41'0 0.0
2018-Jun-07 02:25N 50°08' W 124°41'0 0.0
2018-Jun-07 01:58N 50°08' W 124°41'0 0.0
2018-Jun-07 01:28N 50°08' W 124°41'0 0.0
2018-Jun-07 00:58N 50°08' W 124°41'0 0.0
2018-Jun-07 00:28N 50°08' W 124°41'0 0.0
2018-Jun-06 23:58N 50°08' W 124°41'0 0.0
2018-Jun-06 23:28N 50°08' W 124°41'0 0.0
2018-Jun-06 22:58N 50°08' W 124°41'0 0.0
2018-Jun-06 22:28N 50°08' W 124°41'0 0.0
2018-Jun-06 21:58N 50°08' W 124°41'0 0.0
2018-Jun-06 21:28N 50°08' W 124°41'0 0.0
2018-Jun-06 20:58N 50°08' W 124°41'0 0.0
2018-Jun-06 20:28N 50°08' W 124°41'0 0.0
2018-Jun-06 19:58N 50°08' W 124°41'0 0.0
2018-Jun-06 19:28N 50°08' W 124°41'0 0.0
2018-Jun-06 18:58N 50°08' W 124°41'0 0.0
2018-Jun-06 18:28N 50°08' W 124°41'0 0.0
2018-Jun-06 17:55N 50°08' W 124°41'0 0.0
2018-Jun-06 17:28N 50°08' W 124°41'0 0.0
2018-Jun-06 16:58N 50°08' W 124°41'0 0.0
2018-Jun-06 16:28N 50°08' W 124°41'0 0.0
2018-Jun-06 15:58N 50°08' W 124°41'0 0.0
2018-Jun-06 15:28N 50°08' W 124°41'0 0.0
2018-Jun-06 14:58N 50°08' W 124°41'0 0.0
2018-Jun-06 14:28N 50°08' W 124°41'0 0.0
2018-Jun-06 13:58N 50°08' W 124°41'0 0.0
2018-Jun-06 13:28N 50°08' W 124°41'0 0.0
2018-Jun-06 12:58N 50°08' W 124°41'0 0.0
2018-Jun-06 12:28N 50°08' W 124°41'0 0.0
2018-Jun-06 11:58N 50°08' W 124°41'0 0.0
2018-Jun-06 11:28N 50°08' W 124°41'0 0.0
2018-Jun-06 10:58N 50°08' W 124°41'0 0.0
2018-Jun-06 10:28N 50°08' W 124°41'0 0.0
2018-Jun-06 09:58N 50°08' W 124°41'0 0.0
2018-Jun-06 09:28N 50°08' W 124°41'0 0.0
2018-Jun-06 08:46N 50°08' W 124°41'0 0.0
2018-Jun-06 08:28N 50°08' W 124°41'0 0.0
2018-Jun-06 07:58N 50°08' W 124°41'0 0.1
2018-Jun-06 07:28N 50°08' W 124°41'0 0.1
2018-Jun-06 06:58N 50°08' W 124°41'0 0.0
2018-Jun-06 06:28N 50°08' W 124°41'0 0.0
2018-Jun-06 05:58N 50°08' W 124°41'0 0.0
2018-Jun-06 05:28N 50°08' W 124°41'0 0.0
2018-Jun-06 04:58N 50°08' W 124°41'0 0.1
2018-Jun-06 04:28N 50°08' W 124°41'0 0.1
2018-Jun-06 03:58N 50°08' W 124°41'0 0.0
2018-Jun-06 03:28N 50°08' W 124°41'0 0.0
2018-Jun-06 02:58N 50°08' W 124°41'0 0.0
2018-Jun-06 02:28N 50°08' W 124°41'0 0.0
2018-Jun-06 01:58N 50°08' W 124°41'0 0.0
2018-Jun-06 01:28N 50°08' W 124°41'0 0.0
2018-Jun-06 00:58N 50°08' W 124°41'0 0.0
2018-Jun-06 00:28N 50°08' W 124°41'0 0.0
2018-Jun-05 23:58N 50°08' W 124°41'0 0.0
2018-Jun-05 23:28N 50°08' W 124°41'0 0.0
2018-Jun-05 22:58N 50°08' W 124°41'0 0.3
2018-Jun-05 22:30N 50°09' W 124°41'1 1.7
2018-Jun-05 21:59N 50°08' W 124°42'3 6.9
2018-Jun-05 21:30N 50°06' W 124°46'4 7.6
2018-Jun-05 20:59N 50°04' W 124°51'5 8.2
2018-Jun-05 20:25N 49°59' W 124°47'7 8.6
2018-Jun-05 19:39N 49°55' W 124°40'1 9.3
2018-Jun-05 19:30N 49°54' W 124°39'  
Track history (hours):
 
Tides and Currents Weather Stations Pressure Air Temp Water Temp Dewpoint Dewpoint Depression Visibility Wind Speed Wind Dir Waves Ship Positions

Cruzeiro Do Sul

Owner: Allen, Gail K, Anacortes, WA. More information available from US FCC via Universal Licensing System and Coast Guard Vessel Documentation Center.

Last reported at 2018-Jun-08 20:35 UTC. Time now 2018-Jun-24 03:41 UTC.
Position N 50°25' W 125°14'.
Warning: this ship's position is 15 days out of date.

Length 16 m.

Type: Pleasure craft. MMSI: 367755070.

Date/timePositionNaut miles runAvg speedWind from/ knotsBaromVisibWave heightAir tempDewpointWater temp
2018-Jun-08 20:35N 50°25' W 125°14'2 7.6
2018-Jun-08 20:21N 50°24' W 125°12'3 5.6
2018-Jun-08 19:52N 50°22' W 125°09'3 8.1
2018-Jun-08 19:30N 50°20' W 125°06'4 7.6
2018-Jun-08 19:00N 50°17' W 125°02'4 8.1
2018-Jun-08 18:30N 50°14' W 124°58'4 8.3
2018-Jun-08 17:59N 50°10' W 124°55'4 7.7
2018-Jun-08 17:29N 50°07' W 124°51'3 6.3
2018-Jun-08 17:00N 50°07' W 124°47'4 6.9
2018-Jun-08 16:28N 50°09' W 124°41'0 0.9
2018-Jun-08 15:58N 50°08' W 124°41'0 0.0
2018-Jun-08 15:28N 50°08' W 124°41'0 0.0
2018-Jun-08 14:58N 50°08' W 124°41'0 0.0
2018-Jun-08 14:28N 50°08' W 124°41'0 0.0
2018-Jun-08 13:58N 50°08' W 124°41'0 0.0
2018-Jun-08 13:28N 50°08' W 124°41'0 0.0
2018-Jun-08 12:58N 50°08' W 124°41'0 0.0
2018-Jun-08 12:28N 50°08' W 124°41'0 0.0
2018-Jun-08 11:58N 50°08' W 124°41'0 0.0
2018-Jun-08 11:28N 50°08' W 124°41'0 0.0
2018-Jun-08 10:55N 50°08' W 124°41'0 0.0
2018-Jun-08 10:28N 50°08' W 124°41'0 0.0
2018-Jun-08 09:58N 50°08' W 124°41'0 0.0
2018-Jun-08 09:28N 50°08' W 124°41'0 0.0
2018-Jun-08 08:58N 50°08' W 124°41'0 0.0
2018-Jun-08 08:25N 50°08' W 124°41'0 0.0
2018-Jun-08 07:58N 50°08' W 124°41'0 0.0
2018-Jun-08 07:28N 50°08' W 124°41'0 0.0
2018-Jun-08 06:58N 50°08' W 124°41'0 0.0
2018-Jun-08 06:28N 50°08' W 124°41'0 0.0
2018-Jun-08 05:58N 50°08' W 124°41'0 0.0
2018-Jun-08 05:28N 50°08' W 124°41'0 0.0
2018-Jun-08 04:58N 50°08' W 124°41'0 0.0
2018-Jun-08 04:28N 50°08' W 124°41'0 0.0
2018-Jun-08 03:55N 50°08' W 124°41'0 0.0
2018-Jun-08 03:25N 50°08' W 124°41'0 0.0
2018-Jun-08 02:55N 50°08' W 124°41'0 0.0
2018-Jun-08 02:25N 50°08' W 124°41'0 0.0
2018-Jun-08 01:58N 50°08' W 124°41'0 0.0
2018-Jun-08 01:25N 50°08' W 124°41'0 0.0
2018-Jun-08 00:58N 50°08' W 124°41'0 0.0
2018-Jun-08 00:28N 50°08' W 124°41'0 0.0
2018-Jun-07 23:58N 50°08' W 124°41'0 0.0
2018-Jun-07 23:28N 50°08' W 124°41'0 0.0
2018-Jun-07 22:58N 50°08' W 124°41'0 0.0
2018-Jun-07 22:28N 50°08' W 124°41'0 0.0
2018-Jun-07 21:55N 50°08' W 124°41'0 0.0
2018-Jun-07 21:25N 50°08' W 124°41'0 0.0
2018-Jun-07 20:58N 50°08' W 124°41'0 0.0
2018-Jun-07 20:28N 50°08' W 124°41'0 0.0
2018-Jun-07 19:58N 50°08' W 124°41'0 0.0
2018-Jun-07 19:28N 50°08' W 124°41'0 0.0
2018-Jun-07 18:55N 50°08' W 124°41'0 0.0
2018-Jun-07 18:28N 50°08' W 124°41'0 0.0
2018-Jun-07 17:55N 50°08' W 124°41'0 0.0
2018-Jun-07 17:28N 50°08' W 124°41'0 0.0
2018-Jun-07 16:58N 50°08' W 124°41'0 0.0
2018-Jun-07 16:28N 50°08' W 124°41'0 0.0
2018-Jun-07 15:55N 50°08' W 124°41'0 0.0
2018-Jun-07 15:28N 50°08' W 124°41'0 0.0
2018-Jun-07 14:58N 50°08' W 124°41'0 0.0
2018-Jun-07 14:28N 50°08' W 124°41'0 0.0
2018-Jun-07 13:58N 50°08' W 124°41'0 0.0
2018-Jun-07 13:28N 50°08' W 124°41'0 0.0
2018-Jun-07 12:55N 50°08' W 124°41'0 0.0
2018-Jun-07 12:25N 50°08' W 124°41'0 0.0
2018-Jun-07 11:58N 50°08' W 124°41'0 0.0
2018-Jun-07 11:28N 50°08' W 124°41'0 0.0
2018-Jun-07 10:58N 50°08' W 124°41'0 0.0
2018-Jun-07 10:28N 50°08' W 124°41'0 0.0
2018-Jun-07 09:55N 50°08' W 124°41'0 0.0
2018-Jun-07 09:28N 50°08' W 124°41'0 0.0
2018-Jun-07 08:58N 50°08' W 124°41'0 0.0
2018-Jun-07 08:28N 50°08' W 124°41'0 0.0
2018-Jun-07 07:58N 50°08' W 124°41'0 0.0
2018-Jun-07 07:28N 50°08' W 124°41'0 0.0
2018-Jun-07 06:58N 50°08' W 124°41'0 0.0
2018-Jun-07 06:28N 50°08' W 124°41'0 0.0
2018-Jun-07 05:55N 50°08' W 124°41'0 0.0
2018-Jun-07 05:28N 50°08' W 124°41'0 0.0
2018-Jun-07 04:58N 50°08' W 124°41'0 0.0
2018-Jun-07 04:28N 50°08' W 124°41'0 0.0
2018-Jun-07 03:58N 50°08' W 124°41'0 0.0
2018-Jun-07 03:28N 50°08' W 124°41'0 0.0
2018-Jun-07 02:55N 50°08' W 124°41'0 0.0
2018-Jun-07 02:25N 50°08' W 124°41'0 0.0
2018-Jun-07 01:58N 50°08' W 124°41'0 0.0
2018-Jun-07 01:28N 50°08' W 124°41'0 0.0
2018-Jun-07 00:58N 50°08' W 124°41'0 0.0
2018-Jun-07 00:28N 50°08' W 124°41'0 0.0
2018-Jun-06 23:58N 50°08' W 124°41'0 0.0
2018-Jun-06 23:28N 50°08' W 124°41'0 0.0
2018-Jun-06 22:58N 50°08' W 124°41'0 0.0
2018-Jun-06 22:28N 50°08' W 124°41'0 0.0
2018-Jun-06 21:58N 50°08' W 124°41'0 0.0
2018-Jun-06 21:28N 50°08' W 124°41'0 0.0
2018-Jun-06 20:58N 50°08' W 124°41'0 0.0
2018-Jun-06 20:28N 50°08' W 124°41'0 0.0
2018-Jun-06 19:58N 50°08' W 124°41'0 0.0
2018-Jun-06 19:28N 50°08' W 124°41'0 0.0
2018-Jun-06 18:58N 50°08' W 124°41'0 0.0
2018-Jun-06 18:28N 50°08' W 124°41'0 0.0
2018-Jun-06 17:55N 50°08' W 124°41'0 0.0
2018-Jun-06 17:28N 50°08' W 124°41'0 0.0
2018-Jun-06 16:58N 50°08' W 124°41'0 0.0
2018-Jun-06 16:28N 50°08' W 124°41'0 0.0
2018-Jun-06 15:58N 50°08' W 124°41'0 0.0
2018-Jun-06 15:28N 50°08' W 124°41'0 0.0
2018-Jun-06 14:58N 50°08' W 124°41'0 0.0
2018-Jun-06 14:28N 50°08' W 124°41'0 0.0
2018-Jun-06 13:58N 50°08' W 124°41'0 0.0
2018-Jun-06 13:28N 50°08' W 124°41'0 0.0
2018-Jun-06 12:58N 50°08' W 124°41'0 0.0
2018-Jun-06 12:28N 50°08' W 124°41'0 0.0
2018-Jun-06 11:58N 50°08' W 124°41'0 0.0
2018-Jun-06 11:28N 50°08' W 124°41'0 0.0
2018-Jun-06 10:58N 50°08' W 124°41'0 0.0
2018-Jun-06 10:28N 50°08' W 124°41'0 0.0
2018-Jun-06 09:58N 50°08' W 124°41'0 0.0
2018-Jun-06 09:28N 50°08' W 124°41'0 0.0
2018-Jun-06 08:46N 50°08' W 124°41'0 0.0
2018-Jun-06 08:28N 50°08' W 124°41'0 0.0
2018-Jun-06 07:58N 50°08' W 124°41'0 0.1
2018-Jun-06 07:28N 50°08' W 124°41'0 0.1
2018-Jun-06 06:58N 50°08' W 124°41'0 0.0
2018-Jun-06 06:28N 50°08' W 124°41'0 0.0
2018-Jun-06 05:58N 50°08' W 124°41'0 0.0
2018-Jun-06 05:28N 50°08' W 124°41'0 0.0
2018-Jun-06 04:58N 50°08' W 124°41'0 0.1
2018-Jun-06 04:28N 50°08' W 124°41'0 0.1
2018-Jun-06 03:58N 50°08' W 124°41'0 0.0
2018-Jun-06 03:28N 50°08' W 124°41'0 0.0
2018-Jun-06 02:58N 50°08' W 124°41'0 0.0
2018-Jun-06 02:28N 50°08' W 124°41'0 0.0
2018-Jun-06 01:58N 50°08' W 124°41'0 0.0
2018-Jun-06 01:28N 50°08' W 124°41'0 0.0
2018-Jun-06 00:58N 50°08' W 124°41'0 0.0
2018-Jun-06 00:28N 50°08' W 124°41'0 0.0
2018-Jun-05 23:58N 50°08' W 124°41'0 0.0
2018-Jun-05 23:28N 50°08' W 124°41'0 0.0
2018-Jun-05 22:58N 50°08' W 124°41'0 0.3
2018-Jun-05 22:30N 50°09' W 124°41'1 1.7
2018-Jun-05 21:59N 50°08' W 124°42'3 6.9
2018-Jun-05 21:30N 50°06' W 124°46'4 7.6
2018-Jun-05 20:59N 50°04' W 124°51'5 8.2
2018-Jun-05 20:25N 49°59' W 124°47'7 8.6
2018-Jun-05 19:39N 49°55' W 124°40'1 9.3
2018-Jun-05 19:30N 49°54' W 124°39'  

Dump ship's entire track history